sensor_id;sensor_type;location;lat;lon;timestamp;P1;durP1;ratioP1;P2;durP2;ratioP2
15958;SDS011;8078;47.822;9.402;2023-03-15T00:01:12;3.77;;;2.37;;
15958;SDS011;8078;47.822;9.402;2023-03-15T00:03:40;2.57;;;2.37;;
15958;SDS011;8078;47.822;9.402;2023-03-15T00:06:07;3.97;;;2.30;;
15958;SDS011;8078;47.822;9.402;2023-03-15T00:08:33;3.50;;;2.60;;
15958;SDS011;8078;47.822;9.402;2023-03-15T00:10:58;3.53;;;2.40;;
15958;SDS011;8078;47.822;9.402;2023-03-15T00:13:25;2.60;;;2.40;;
15958;SDS011;8078;47.822;9.402;2023-03-15T00:15:51;2.33;;;2.20;;
15958;SDS011;8078;47.822;9.402;2023-03-15T00:18:20;2.60;;;2.40;;
15958;SDS011;8078;47.822;9.402;2023-03-15T00:20:46;2.67;;;2.47;;
15958;SDS011;8078;47.822;9.402;2023-03-15T00:23:12;2.77;;;2.53;;
15958;SDS011;8078;47.822;9.402;2023-03-15T00:25:39;3.10;;;2.80;;
15958;SDS011;8078;47.822;9.402;2023-03-15T00:28:05;2.87;;;2.57;;
15958;SDS011;8078;47.822;9.402;2023-03-15T00:30:31;3.03;;;2.73;;
15958;SDS011;8078;47.822;9.402;2023-03-15T00:32:57;2.87;;;2.67;;
15958;SDS011;8078;47.822;9.402;2023-03-15T00:35:22;2.57;;;2.37;;
15958;SDS011;8078;47.822;9.402;2023-03-15T00:37:49;3.10;;;2.80;;
15958;SDS011;8078;47.822;9.402;2023-03-15T00:40:18;3.67;;;2.67;;
15958;SDS011;8078;47.822;9.402;2023-03-15T00:42:44;3.17;;;2.90;;
15958;SDS011;8078;47.822;9.402;2023-03-15T00:45:14;3.30;;;3.00;;
15958;SDS011;8078;47.822;9.402;2023-03-15T00:47:43;3.33;;;3.00;;
15958;SDS011;8078;47.822;9.402;2023-03-15T00:50:09;3.13;;;2.73;;
15958;SDS011;8078;47.822;9.402;2023-03-15T00:52:35;3.63;;;3.10;;
15958;SDS011;8078;47.822;9.402;2023-03-15T00:55:01;4.90;;;3.47;;
15958;SDS011;8078;47.822;9.402;2023-03-15T00:57:28;4.57;;;3.67;;
15958;SDS011;8078;47.822;9.402;2023-03-15T00:59:54;3.93;;;3.53;;
15958;SDS011;8078;47.822;9.402;2023-03-15T01:02:19;5.03;;;3.90;;
15958;SDS011;8078;47.822;9.402;2023-03-15T01:04:46;4.37;;;3.80;;
15958;SDS011;8078;47.822;9.402;2023-03-15T01:07:12;3.67;;;3.30;;
15958;SDS011;8078;47.822;9.402;2023-03-15T01:09:38;3.27;;;2.97;;
15958;SDS011;8078;47.822;9.402;2023-03-15T01:12:04;5.17;;;2.80;;
15958;SDS011;8078;47.822;9.402;2023-03-15T01:14:30;2.90;;;2.70;;
15958;SDS011;8078;47.822;9.402;2023-03-15T01:16:59;2.60;;;2.40;;
15958;SDS011;8078;47.822;9.402;2023-03-15T01:19:24;3.57;;;2.57;;
15958;SDS011;8078;47.822;9.402;2023-03-15T01:21:50;2.60;;;2.03;;
15958;SDS011;8078;47.822;9.402;2023-03-15T01:24:15;2.97;;;2.77;;
15958;SDS011;8078;47.822;9.402;2023-03-15T01:26:41;3.03;;;2.73;;
15958;SDS011;8078;47.822;9.402;2023-03-15T01:29:06;3.30;;;2.77;;
15958;SDS011;8078;47.822;9.402;2023-03-15T01:31:32;4.37;;;2.60;;
15958;SDS011;8078;47.822;9.402;2023-03-15T01:33:58;2.70;;;2.30;;
15958;SDS011;8078;47.822;9.402;2023-03-15T01:36:24;2.83;;;2.63;;
15958;SDS011;8078;47.822;9.402;2023-03-15T01:38:50;2.90;;;2.60;;
15958;SDS011;8078;47.822;9.402;2023-03-15T01:41:17;4.67;;;2.70;;
15958;SDS011;8078;47.822;9.402;2023-03-15T01:43:43;2.70;;;2.50;;
15958;SDS011;8078;47.822;9.402;2023-03-15T01:48:48;4.73;;;2.60;;
15958;SDS011;8078;47.822;9.402;2023-03-15T01:56:28;5.03;;;2.63;;
15958;SDS011;8078;47.822;9.402;2023-03-15T01:58:56;2.83;;;2.63;;
15958;SDS011;8078;47.822;9.402;2023-03-15T02:01:24;2.60;;;2.40;;
15958;SDS011;8078;47.822;9.402;2023-03-15T02:03:51;2.60;;;2.40;;
15958;SDS011;8078;47.822;9.402;2023-03-15T02:06:23;4.77;;;2.80;;
15958;SDS011;8078;47.822;9.402;2023-03-15T02:08:57;4.40;;;2.70;;
15958;SDS011;8078;47.822;9.402;2023-03-15T02:11:25;4.63;;;2.67;;
15958;SDS011;8078;47.822;9.402;2023-03-15T02:13:52;4.40;;;3.13;;
15958;SDS011;8078;47.822;9.402;2023-03-15T02:16:19;3.30;;;3.00;;
15958;SDS011;8078;47.822;9.402;2023-03-15T02:18:45;5.77;;;3.17;;
15958;SDS011;8078;47.822;9.402;2023-03-15T02:23:47;5.83;;;3.47;;
15958;SDS011;8078;47.822;9.402;2023-03-15T02:26:29;3.80;;;2.90;;
15958;SDS011;8078;47.822;9.402;2023-03-15T02:29:01;8.37;;;3.80;;
15958;SDS011;8078;47.822;9.402;2023-03-15T02:31:26;4.87;;;3.17;;
15958;SDS011;8078;47.822;9.402;2023-03-15T02:33:52;6.70;;;3.30;;
15958;SDS011;8078;47.822;9.402;2023-03-15T02:38:49;7.70;;;3.20;;
15958;SDS011;8078;47.822;9.402;2023-03-15T02:41:17;6.13;;;3.43;;
15958;SDS011;8078;47.822;9.402;2023-03-15T02:43:48;8.50;;;3.73;;
15958;SDS011;8078;47.822;9.402;2023-03-15T02:46:19;6.83;;;3.53;;
15958;SDS011;8078;47.822;9.402;2023-03-15T02:48:45;8.97;;;4.00;;
15958;SDS011;8078;47.822;9.402;2023-03-15T02:51:22;5.87;;;3.40;;
15958;SDS011;8078;47.822;9.402;2023-03-15T02:53:48;6.37;;;3.47;;
15958;SDS011;8078;47.822;9.402;2023-03-15T02:56:14;8.10;;;4.17;;
15958;SDS011;8078;47.822;9.402;2023-03-15T02:58:40;6.40;;;3.53;;
15958;SDS011;8078;47.822;9.402;2023-03-15T03:01:10;3.90;;;3.53;;
15958;SDS011;8078;47.822;9.402;2023-03-15T03:03:40;7.00;;;4.13;;
15958;SDS011;8078;47.822;9.402;2023-03-15T03:06:07;12.37;;;3.70;;
15958;SDS011;8078;47.822;9.402;2023-03-15T03:08:33;9.00;;;4.07;;
15958;SDS011;8078;47.822;9.402;2023-03-15T03:10:59;6.27;;;3.47;;
15958;SDS011;8078;47.822;9.402;2023-03-15T03:13:24;7.53;;;3.60;;
15958;SDS011;8078;47.822;9.402;2023-03-15T03:15:50;9.47;;;3.73;;
15958;SDS011;8078;47.822;9.402;2023-03-15T03:18:29;5.13;;;3.87;;
15958;SDS011;8078;47.822;9.402;2023-03-15T03:20:59;6.07;;;3.90;;
15958;SDS011;8078;47.822;9.402;2023-03-15T03:23:27;6.73;;;3.63;;
15958;SDS011;8078;47.822;9.402;2023-03-15T03:25:54;8.47;;;3.80;;
15958;SDS011;8078;47.822;9.402;2023-03-15T03:28:21;7.10;;;3.87;;
15958;SDS011;8078;47.822;9.402;2023-03-15T03:30:51;7.60;;;4.00;;
15958;SDS011;8078;47.822;9.402;2023-03-15T03:33:18;4.23;;;3.63;;
15958;SDS011;8078;47.822;9.402;2023-03-15T03:35:44;4.97;;;3.50;;
15958;SDS011;8078;47.822;9.402;2023-03-15T03:38:09;6.43;;;3.67;;
15958;SDS011;8078;47.822;9.402;2023-03-15T03:40:36;4.80;;;3.30;;
15958;SDS011;8078;47.822;9.402;2023-03-15T03:43:05;10.33;;;3.57;;
15958;SDS011;8078;47.822;9.402;2023-03-15T03:45:31;3.63;;;3.07;;
15958;SDS011;8078;47.822;9.402;2023-03-15T03:47:57;7.43;;;3.50;;
15958;SDS011;8078;47.822;9.402;2023-03-15T03:50:23;6.10;;;3.77;;
15958;SDS011;8078;47.822;9.402;2023-03-15T03:52:48;4.47;;;3.60;;
15958;SDS011;8078;47.822;9.402;2023-03-15T03:55:14;4.40;;;3.60;;
15958;SDS011;8078;47.822;9.402;2023-03-15T03:57:40;5.67;;;3.37;;
15958;SDS011;8078;47.822;9.402;2023-03-15T04:00:07;7.93;;;3.50;;
15958;SDS011;8078;47.822;9.402;2023-03-15T04:02:34;4.17;;;3.77;;
15958;SDS011;8078;47.822;9.402;2023-03-15T04:05:00;5.03;;;3.60;;
15958;SDS011;8078;47.822;9.402;2023-03-15T04:07:25;6.77;;;3.33;;
15958;SDS011;8078;47.822;9.402;2023-03-15T04:09:51;5.97;;;3.10;;
15958;SDS011;8078;47.822;9.402;2023-03-15T04:12:17;5.17;;;3.37;;
15958;SDS011;8078;47.822;9.402;2023-03-15T04:14:42;9.67;;;3.73;;
15958;SDS011;8078;47.822;9.402;2023-03-15T04:17:08;10.53;;;3.30;;
15958;SDS011;8078;47.822;9.402;2023-03-15T04:19:33;8.30;;;3.70;;
15958;SDS011;8078;47.822;9.402;2023-03-15T04:21:59;7.87;;;3.37;;
15958;SDS011;8078;47.822;9.402;2023-03-15T04:24:30;8.30;;;4.03;;
15958;SDS011;8078;47.822;9.402;2023-03-15T04:26:57;15.47;;;3.70;;
15958;SDS011;8078;47.822;9.402;2023-03-15T04:29:23;8.30;;;3.70;;
15958;SDS011;8078;47.822;9.402;2023-03-15T04:31:49;8.80;;;3.93;;
15958;SDS011;8078;47.822;9.402;2023-03-15T04:34:14;8.03;;;4.03;;
15958;SDS011;8078;47.822;9.402;2023-03-15T04:36:40;6.80;;;3.47;;
15958;SDS011;8078;47.822;9.402;2023-03-15T04:39:06;9.60;;;3.43;;
15958;SDS011;8078;47.822;9.402;2023-03-15T04:41:34;5.80;;;3.83;;
15958;SDS011;8078;47.822;9.402;2023-03-15T04:44:03;6.40;;;3.57;;
15958;SDS011;8078;47.822;9.402;2023-03-15T04:46:30;8.63;;;3.73;;
15958;SDS011;8078;47.822;9.402;2023-03-15T04:48:56;7.63;;;3.33;;
15958;SDS011;8078;47.822;9.402;2023-03-15T04:51:22;6.00;;;3.50;;
15958;SDS011;8078;47.822;9.402;2023-03-15T04:53:48;6.47;;;3.40;;
15958;SDS011;8078;47.822;9.402;2023-03-15T04:56:14;9.33;;;3.67;;
15958;SDS011;8078;47.822;9.402;2023-03-15T04:58:39;6.63;;;3.83;;
15958;SDS011;8078;47.822;9.402;2023-03-15T05:01:05;11.27;;;3.70;;
15958;SDS011;8078;47.822;9.402;2023-03-15T05:03:31;9.83;;;4.10;;
15958;SDS011;8078;47.822;9.402;2023-03-15T05:05:56;6.83;;;3.33;;
15958;SDS011;8078;47.822;9.402;2023-03-15T05:08:22;5.13;;;3.07;;
15958;SDS011;8078;47.822;9.402;2023-03-15T05:10:47;11.63;;;4.27;;
15958;SDS011;8078;47.822;9.402;2023-03-15T05:13:13;8.77;;;3.77;;
15958;SDS011;8078;47.822;9.402;2023-03-15T05:15:39;7.30;;;3.43;;
15958;SDS011;8078;47.822;9.402;2023-03-15T05:18:04;4.43;;;3.37;;
15958;SDS011;8078;47.822;9.402;2023-03-15T05:20:30;6.63;;;3.50;;
15958;SDS011;8078;47.822;9.402;2023-03-15T05:22:56;10.30;;;3.67;;
15958;SDS011;8078;47.822;9.402;2023-03-15T05:25:22;7.10;;;3.50;;
15958;SDS011;8078;47.822;9.402;2023-03-15T05:27:48;5.23;;;3.10;;
15958;SDS011;8078;47.822;9.402;2023-03-15T05:30:14;6.33;;;3.60;;
15958;SDS011;8078;47.822;9.402;2023-03-15T05:32:40;5.53;;;3.77;;
15958;SDS011;8078;47.822;9.402;2023-03-15T05:35:08;6.00;;;4.00;;
15958;SDS011;8078;47.822;9.402;2023-03-15T05:37:35;6.27;;;3.33;;
15958;SDS011;8078;47.822;9.402;2023-03-15T05:40:00;6.40;;;3.20;;
15958;SDS011;8078;47.822;9.402;2023-03-15T05:42:26;4.77;;;3.10;;
15958;SDS011;8078;47.822;9.402;2023-03-15T05:44:53;7.20;;;3.70;;
15958;SDS011;8078;47.822;9.402;2023-03-15T05:47:20;8.03;;;3.80;;
15958;SDS011;8078;47.822;9.402;2023-03-15T05:49:46;5.93;;;3.37;;
15958;SDS011;8078;47.822;9.402;2023-03-15T05:52:12;8.27;;;4.33;;
15958;SDS011;8078;47.822;9.402;2023-03-15T05:54:38;7.93;;;3.40;;
15958;SDS011;8078;47.822;9.402;2023-03-15T05:57:04;11.93;;;4.37;;
15958;SDS011;8078;47.822;9.402;2023-03-15T05:59:30;6.20;;;4.03;;
15958;SDS011;8078;47.822;9.402;2023-03-15T06:01:55;6.50;;;3.67;;
15958;SDS011;8078;47.822;9.402;2023-03-15T06:04:22;6.23;;;3.97;;
15958;SDS011;8078;47.822;9.402;2023-03-15T06:06:48;6.87;;;3.60;;
15958;SDS011;8078;47.822;9.402;2023-03-15T06:09:14;7.13;;;3.50;;
15958;SDS011;8078;47.822;9.402;2023-03-15T06:11:40;5.97;;;3.83;;
15958;SDS011;8078;47.822;9.402;2023-03-15T06:14:05;8.10;;;3.90;;
15958;SDS011;8078;47.822;9.402;2023-03-15T06:16:31;4.47;;;3.30;;
15958;SDS011;8078;47.822;9.402;2023-03-15T06:18:56;5.27;;;3.60;;
15958;SDS011;8078;47.822;9.402;2023-03-15T06:21:22;5.17;;;3.40;;
15958;SDS011;8078;47.822;9.402;2023-03-15T06:23:50;11.10;;;3.73;;
15958;SDS011;8078;47.822;9.402;2023-03-15T06:26:15;4.40;;;3.17;;
15958;SDS011;8078;47.822;9.402;2023-03-15T06:28:43;10.10;;;3.70;;
15958;SDS011;8078;47.822;9.402;2023-03-15T06:31:10;5.40;;;3.10;;
15958;SDS011;8078;47.822;9.402;2023-03-15T06:33:36;6.17;;;3.03;;
15958;SDS011;8078;47.822;9.402;2023-03-15T06:36:03;3.67;;;3.23;;
15958;SDS011;8078;47.822;9.402;2023-03-15T06:38:29;9.73;;;3.50;;
15958;SDS011;8078;47.822;9.402;2023-03-15T06:40:55;7.60;;;3.30;;
15958;SDS011;8078;47.822;9.402;2023-03-15T06:43:23;5.87;;;2.97;;
15958;SDS011;8078;47.822;9.402;2023-03-15T06:45:48;4.57;;;2.90;;
15958;SDS011;8078;47.822;9.402;2023-03-15T06:48:15;6.37;;;2.93;;
15958;SDS011;8078;47.822;9.402;2023-03-15T06:50:41;8.07;;;3.07;;
15958;SDS011;8078;47.822;9.402;2023-03-15T06:53:07;6.73;;;3.37;;
15958;SDS011;8078;47.822;9.402;2023-03-15T06:55:33;6.30;;;3.13;;
15958;SDS011;8078;47.822;9.402;2023-03-15T06:57:58;5.00;;;2.93;;
15958;SDS011;8078;47.822;9.402;2023-03-15T07:00:24;7.37;;;2.80;;
15958;SDS011;8078;47.822;9.402;2023-03-15T07:02:50;6.73;;;3.00;;
15958;SDS011;8078;47.822;9.402;2023-03-15T07:05:15;11.30;;;3.47;;
15958;SDS011;8078;47.822;9.402;2023-03-15T07:07:41;4.10;;;2.80;;
15958;SDS011;8078;47.822;9.402;2023-03-15T07:10:06;3.47;;;2.57;;
15958;SDS011;8078;47.822;9.402;2023-03-15T07:12:33;3.83;;;2.53;;
15958;SDS011;8078;47.822;9.402;2023-03-15T07:14:58;3.43;;;2.80;;
15958;SDS011;8078;47.822;9.402;2023-03-15T07:17:24;10.40;;;3.17;;
15958;SDS011;8078;47.822;9.402;2023-03-15T07:19:49;6.00;;;3.40;;
15958;SDS011;8078;47.822;9.402;2023-03-15T07:22:16;7.60;;;3.27;;
15958;SDS011;8078;47.822;9.402;2023-03-15T07:24:41;5.83;;;3.47;;
15958;SDS011;8078;47.822;9.402;2023-03-15T07:27:09;3.83;;;2.83;;
15958;SDS011;8078;47.822;9.402;2023-03-15T07:29:36;5.17;;;3.13;;
15958;SDS011;8078;47.822;9.402;2023-03-15T07:32:02;7.47;;;3.30;;
15958;SDS011;8078;47.822;9.402;2023-03-15T07:34:27;7.10;;;3.03;;
15958;SDS011;8078;47.822;9.402;2023-03-15T07:36:53;6.33;;;3.33;;
15958;SDS011;8078;47.822;9.402;2023-03-15T07:39:18;5.13;;;3.20;;
15958;SDS011;8078;47.822;9.402;2023-03-15T07:41:44;6.07;;;3.43;;
15958;SDS011;8078;47.822;9.402;2023-03-15T07:44:10;4.60;;;3.40;;
15958;SDS011;8078;47.822;9.402;2023-03-15T07:46:35;5.60;;;3.50;;
15958;SDS011;8078;47.822;9.402;2023-03-15T07:49:01;7.40;;;3.20;;
15958;SDS011;8078;47.822;9.402;2023-03-15T07:51:27;5.30;;;3.20;;
15958;SDS011;8078;47.822;9.402;2023-03-15T07:53:52;6.20;;;3.50;;
15958;SDS011;8078;47.822;9.402;2023-03-15T07:56:18;5.37;;;3.03;;
15958;SDS011;8078;47.822;9.402;2023-03-15T07:58:43;4.17;;;3.07;;
15958;SDS011;8078;47.822;9.402;2023-03-15T08:01:09;4.63;;;3.20;;
15958;SDS011;8078;47.822;9.402;2023-03-15T08:03:34;6.23;;;3.40;;
15958;SDS011;8078;47.822;9.402;2023-03-15T08:06:00;6.20;;;3.67;;
15958;SDS011;8078;47.822;9.402;2023-03-15T08:08:25;9.20;;;4.13;;
15958;SDS011;8078;47.822;9.402;2023-03-15T08:10:51;9.43;;;3.53;;
15958;SDS011;8078;47.822;9.402;2023-03-15T08:13:17;5.93;;;3.87;;
15958;SDS011;8078;47.822;9.402;2023-03-15T08:15:45;4.03;;;3.50;;
15958;SDS011;8078;47.822;9.402;2023-03-15T08:18:12;8.50;;;3.73;;
15958;SDS011;8078;47.822;9.402;2023-03-15T08:20:38;5.80;;;3.17;;
15958;SDS011;8078;47.822;9.402;2023-03-15T08:23:03;6.40;;;3.60;;
15958;SDS011;8078;47.822;9.402;2023-03-15T08:25:29;6.83;;;4.23;;
15958;SDS011;8078;47.822;9.402;2023-03-15T08:27:55;5.93;;;3.70;;
15958;SDS011;8078;47.822;9.402;2023-03-15T08:30:20;3.97;;;3.00;;
15958;SDS011;8078;47.822;9.402;2023-03-15T08:32:47;6.50;;;3.17;;
15958;SDS011;8078;47.822;9.402;2023-03-15T08:35:14;3.50;;;3.20;;
15958;SDS011;8078;47.822;9.402;2023-03-15T08:37:41;5.97;;;3.20;;
15958;SDS011;8078;47.822;9.402;2023-03-15T08:40:11;3.87;;;3.33;;
15958;SDS011;8078;47.822;9.402;2023-03-15T08:42:37;4.03;;;3.23;;
15958;SDS011;8078;47.822;9.402;2023-03-15T08:45:06;3.07;;;2.80;;
15958;SDS011;8078;47.822;9.402;2023-03-15T08:47:33;6.03;;;2.73;;
15958;SDS011;8078;47.822;9.402;2023-03-15T08:49:59;4.30;;;2.80;;
15958;SDS011;8078;47.822;9.402;2023-03-15T08:52:29;6.80;;;3.20;;
15958;SDS011;8078;47.822;9.402;2023-03-15T08:54:55;5.87;;;2.90;;
15958;SDS011;8078;47.822;9.402;2023-03-15T08:57:21;5.47;;;2.80;;
15958;SDS011;8078;47.822;9.402;2023-03-15T08:59:50;3.67;;;2.87;;
15958;SDS011;8078;47.822;9.402;2023-03-15T09:02:15;4.93;;;3.20;;
15958;SDS011;8078;47.822;9.402;2023-03-15T09:04:41;5.47;;;3.13;;
15958;SDS011;8078;47.822;9.402;2023-03-15T09:07:07;5.97;;;3.27;;
15958;SDS011;8078;47.822;9.402;2023-03-15T09:09:32;4.67;;;3.40;;
15958;SDS011;8078;47.822;9.402;2023-03-15T09:11:58;6.90;;;3.00;;
15958;SDS011;8078;47.822;9.402;2023-03-15T09:14:24;4.57;;;3.43;;
15958;SDS011;8078;47.822;9.402;2023-03-15T09:16:49;4.57;;;3.60;;
15958;SDS011;8078;47.822;9.402;2023-03-15T09:19:15;4.20;;;3.27;;
15958;SDS011;8078;47.822;9.402;2023-03-15T09:21:40;4.37;;;3.03;;
15958;SDS011;8078;47.822;9.402;2023-03-15T09:24:06;4.03;;;3.63;;
15958;SDS011;8078;47.822;9.402;2023-03-15T09:26:31;3.87;;;3.30;;
15958;SDS011;8078;47.822;9.402;2023-03-15T09:28:57;3.23;;;2.73;;
15958;SDS011;8078;47.822;9.402;2023-03-15T09:31:22;4.13;;;3.10;;
15958;SDS011;8078;47.822;9.402;2023-03-15T09:33:48;3.90;;;2.90;;
15958;SDS011;8078;47.822;9.402;2023-03-15T09:36:14;5.80;;;3.23;;
15958;SDS011;8078;47.822;9.402;2023-03-15T09:38:41;5.60;;;3.10;;
15958;SDS011;8078;47.822;9.402;2023-03-15T09:41:15;5.87;;;3.10;;
15958;SDS011;8078;47.822;9.402;2023-03-15T09:44:00;3.67;;;3.27;;
15958;SDS011;8078;47.822;9.402;2023-03-15T09:57:36;3.47;;;3.10;;
15958;SDS011;8078;47.822;9.402;2023-03-15T10:00:09;6.50;;;3.00;;
15958;SDS011;8078;47.822;9.402;2023-03-15T10:02:41;5.03;;;3.43;;
15958;SDS011;8078;47.822;9.402;2023-03-15T10:05:18;4.53;;;3.10;;
15958;SDS011;8078;47.822;9.402;2023-03-15T10:07:46;4.30;;;2.93;;
15958;SDS011;8078;47.822;9.402;2023-03-15T10:10:16;5.17;;;3.10;;
15958;SDS011;8078;47.822;9.402;2023-03-15T10:12:45;6.37;;;3.17;;
15958;SDS011;8078;47.822;9.402;2023-03-15T10:15:24;3.50;;;2.60;;
15958;SDS011;8078;47.822;9.402;2023-03-15T10:18:05;7.90;;;3.40;;
15958;SDS011;8078;47.822;9.402;2023-03-15T10:20:40;4.13;;;2.70;;
15958;SDS011;8078;47.822;9.402;2023-03-15T10:23:14;6.90;;;3.10;;
15958;SDS011;8078;47.822;9.402;2023-03-15T10:25:51;3.77;;;2.50;;
15958;SDS011;8078;47.822;9.402;2023-03-15T10:28:28;4.17;;;3.10;;
15958;SDS011;8078;47.822;9.402;2023-03-15T10:30:57;2.70;;;2.50;;
15958;SDS011;8078;47.822;9.402;2023-03-15T10:35:58;3.67;;;2.67;;
15958;SDS011;8078;47.822;9.402;2023-03-15T10:38:25;3.10;;;2.50;;
15958;SDS011;8078;47.822;9.402;2023-03-15T10:40:58;3.83;;;2.50;;
15958;SDS011;8078;47.822;9.402;2023-03-15T10:43:25;3.10;;;2.80;;
15958;SDS011;8078;47.822;9.402;2023-03-15T10:48:28;2.73;;;2.47;;
15958;SDS011;8078;47.822;9.402;2023-03-15T10:51:03;3.43;;;2.60;;
15958;SDS011;8078;47.822;9.402;2023-03-15T10:53:31;4.73;;;2.83;;
15958;SDS011;8078;47.822;9.402;2023-03-15T10:56:02;2.57;;;2.37;;
15958;SDS011;8078;47.822;9.402;2023-03-15T10:58:46;2.50;;;2.30;;
15958;SDS011;8078;47.822;9.402;2023-03-15T11:01:13;2.80;;;2.13;;
15958;SDS011;8078;47.822;9.402;2023-03-15T11:03:59;2.10;;;1.90;;
15958;SDS011;8078;47.822;9.402;2023-03-15T11:06:26;2.20;;;2.10;;
15958;SDS011;8078;47.822;9.402;2023-03-15T11:08:53;2.90;;;2.23;;
15958;SDS011;8078;47.822;9.402;2023-03-15T11:11:53;2.50;;;2.30;;
15958;SDS011;8078;47.822;9.402;2023-03-15T11:14:22;2.07;;;1.97;;
15958;SDS011;8078;47.822;9.402;2023-03-15T11:16:53;3.70;;;2.30;;
15958;SDS011;8078;47.822;9.402;2023-03-15T11:19:21;2.90;;;2.07;;
15958;SDS011;8078;47.822;9.402;2023-03-15T11:21:50;2.40;;;2.20;;
15958;SDS011;8078;47.822;9.402;2023-03-15T11:24:50;2.20;;;2.00;;
15958;SDS011;8078;47.822;9.402;2023-03-15T11:27:10;1.90;;;1.70;;
15958;SDS011;8078;47.822;9.402;2023-03-15T11:29:38;2.93;;;2.03;;
15958;SDS011;8078;47.822;9.402;2023-03-15T11:32:23;2.30;;;2.13;;
15958;SDS011;8078;47.822;9.402;2023-03-15T11:37:50;2.87;;;1.97;;
15958;SDS011;8078;47.822;9.402;2023-03-15T11:42:48;2.57;;;1.90;;
15958;SDS011;8078;47.822;9.402;2023-03-15T11:50:58;2.27;;;2.07;;
15958;SDS011;8078;47.822;9.402;2023-03-15T11:53:26;2.23;;;2.03;;
15958;SDS011;8078;47.822;9.402;2023-03-15T11:56:01;3.33;;;2.10;;
15958;SDS011;8078;47.822;9.402;2023-03-15T11:58:44;2.10;;;2.00;;
15958;SDS011;8078;47.822;9.402;2023-03-15T12:01:26;2.60;;;2.20;;
15958;SDS011;8078;47.822;9.402;2023-03-15T12:03:53;2.10;;;1.90;;
15958;SDS011;8078;47.822;9.402;2023-03-15T12:06:52;2.80;;;1.97;;
15958;SDS011;8078;47.822;9.402;2023-03-15T12:15:14;2.93;;;2.27;;
15958;SDS011;8078;47.822;9.402;2023-03-15T12:22:49;2.33;;;1.67;;
15958;SDS011;8078;47.822;9.402;2023-03-15T12:25:36;2.17;;;1.97;;
15958;SDS011;8078;47.822;9.402;2023-03-15T12:28:08;2.23;;;2.00;;
15958;SDS011;8078;47.822;9.402;2023-03-15T12:30:43;2.63;;;1.70;;
15958;SDS011;8078;47.822;9.402;2023-03-15T12:33:17;3.07;;;1.90;;
15958;SDS011;8078;47.822;9.402;2023-03-15T12:35:44;2.10;;;1.80;;
15958;SDS011;8078;47.822;9.402;2023-03-15T12:38:12;3.20;;;2.10;;
15958;SDS011;8078;47.822;9.402;2023-03-15T12:40:54;2.40;;;1.80;;
15958;SDS011;8078;47.822;9.402;2023-03-15T12:43:41;1.87;;;1.77;;
15958;SDS011;8078;47.822;9.402;2023-03-15T12:46:51;2.33;;;1.83;;
15958;SDS011;8078;47.822;9.402;2023-03-15T12:49:06;2.00;;;1.80;;
15958;SDS011;8078;47.822;9.402;2023-03-15T12:51:55;2.50;;;1.83;;
15958;SDS011;8078;47.822;9.402;2023-03-15T12:54:22;2.63;;;1.70;;
15958;SDS011;8078;47.822;9.402;2023-03-15T12:56:53;2.00;;;1.87;;
15958;SDS011;8078;47.822;9.402;2023-03-15T13:02:01;1.63;;;1.53;;
15958;SDS011;8078;47.822;9.402;2023-03-15T13:04:31;1.90;;;1.80;;
15958;SDS011;8078;47.822;9.402;2023-03-15T13:07:03;1.97;;;1.77;;
15958;SDS011;8078;47.822;9.402;2023-03-15T13:09:48;1.97;;;1.80;;
15958;SDS011;8078;47.822;9.402;2023-03-15T13:12:38;3.00;;;1.60;;
15958;SDS011;8078;47.822;9.402;2023-03-15T13:15:15;1.67;;;1.57;;
15958;SDS011;8078;47.822;9.402;2023-03-15T13:18:07;1.63;;;1.53;;
15958;SDS011;8078;47.822;9.402;2023-03-15T13:23:30;1.90;;;1.70;;
15958;SDS011;8078;47.822;9.402;2023-03-15T13:31:32;1.70;;;1.60;;
15958;SDS011;8078;47.822;9.402;2023-03-15T13:34:14;2.43;;;1.57;;
15958;SDS011;8078;47.822;9.402;2023-03-15T13:36:46;1.67;;;1.57;;
15958;SDS011;8078;47.822;9.402;2023-03-15T13:41:48;1.60;;;1.50;;
15958;SDS011;8078;47.822;9.402;2023-03-15T13:44:19;1.43;;;1.30;;
15958;SDS011;8078;47.822;9.402;2023-03-15T13:46:49;1.80;;;1.50;;
15958;SDS011;8078;47.822;9.402;2023-03-15T13:49:16;1.73;;;1.63;;
15958;SDS011;8078;47.822;9.402;2023-03-15T13:51:43;1.73;;;1.33;;
15958;SDS011;8078;47.822;9.402;2023-03-15T13:59:37;1.73;;;1.40;;
15958;SDS011;8078;47.822;9.402;2023-03-15T14:03:36;1.50;;;1.40;;
15958;SDS011;8078;47.822;9.402;2023-03-15T14:06:08;1.60;;;1.50;;
15958;SDS011;8078;47.822;9.402;2023-03-15T14:08:37;1.47;;;1.20;;
15958;SDS011;8078;47.822;9.402;2023-03-15T14:11:38;1.60;;;1.50;;
15958;SDS011;8078;47.822;9.402;2023-03-15T14:13:59;1.40;;;1.40;;
15958;SDS011;8078;47.822;9.402;2023-03-15T14:16:32;1.50;;;1.40;;
15958;SDS011;8078;47.822;9.402;2023-03-15T14:21:43;1.73;;;1.57;;
15958;SDS011;8078;47.822;9.402;2023-03-15T14:24:14;2.37;;;1.40;;
15958;SDS011;8078;47.822;9.402;2023-03-15T14:26:57;1.30;;;1.20;;
15958;SDS011;8078;47.822;9.402;2023-03-15T14:29:25;1.40;;;1.30;;
15958;SDS011;8078;47.822;9.402;2023-03-15T14:32:01;1.77;;;1.20;;
15958;SDS011;8078;47.822;9.402;2023-03-15T14:34:46;1.50;;;1.40;;
15958;SDS011;8078;47.822;9.402;2023-03-15T14:40:03;1.60;;;1.50;;
15958;SDS011;8078;47.822;9.402;2023-03-15T14:42:32;2.07;;;1.50;;
15958;SDS011;8078;47.822;9.402;2023-03-15T14:44:58;1.40;;;1.30;;
15958;SDS011;8078;47.822;9.402;2023-03-15T14:47:24;1.27;;;1.17;;
15958;SDS011;8078;47.822;9.402;2023-03-15T14:49:49;1.93;;;1.30;;
15958;SDS011;8078;47.822;9.402;2023-03-15T14:52:15;3.23;;;1.20;;
15958;SDS011;8078;47.822;9.402;2023-03-15T14:54:45;1.30;;;1.20;;
15958;SDS011;8078;47.822;9.402;2023-03-15T14:57:13;4.93;;;1.30;;
15958;SDS011;8078;47.822;9.402;2023-03-15T14:59:39;2.10;;;1.20;;
15958;SDS011;8078;47.822;9.402;2023-03-15T15:02:04;1.10;;;1.00;;
15958;SDS011;8078;47.822;9.402;2023-03-15T15:04:31;1.60;;;1.20;;
15958;SDS011;8078;47.822;9.402;2023-03-15T15:06:58;2.30;;;1.33;;
15958;SDS011;8078;47.822;9.402;2023-03-15T15:09:24;1.47;;;1.37;;
15958;SDS011;8078;47.822;9.402;2023-03-15T15:11:52;1.37;;;1.27;;
15958;SDS011;8078;47.822;9.402;2023-03-15T15:14:18;2.93;;;1.30;;
15958;SDS011;8078;47.822;9.402;2023-03-15T15:16:45;1.23;;;1.13;;
15958;SDS011;8078;47.822;9.402;2023-03-15T15:19:12;2.37;;;2.27;;
15958;SDS011;8078;47.822;9.402;2023-03-15T15:21:38;1.27;;;1.20;;
15958;SDS011;8078;47.822;9.402;2023-03-15T15:24:04;2.27;;;1.50;;
15958;SDS011;8078;47.822;9.402;2023-03-15T15:26:36;2.03;;;1.30;;
15958;SDS011;8078;47.822;9.402;2023-03-15T15:29:02;2.00;;;1.40;;
15958;SDS011;8078;47.822;9.402;2023-03-15T15:31:28;1.60;;;1.50;;
15958;SDS011;8078;47.822;9.402;2023-03-15T15:33:57;1.60;;;1.50;;
15958;SDS011;8078;47.822;9.402;2023-03-15T15:36:24;2.43;;;1.20;;
15958;SDS011;8078;47.822;9.402;2023-03-15T15:38:51;1.30;;;1.20;;
15958;SDS011;8078;47.822;9.402;2023-03-15T15:41:21;2.30;;;1.40;;
15958;SDS011;8078;47.822;9.402;2023-03-15T15:43:52;1.30;;;1.23;;
15958;SDS011;8078;47.822;9.402;2023-03-15T15:46:18;1.90;;;1.20;;
15958;SDS011;8078;47.822;9.402;2023-03-15T15:48:43;1.43;;;1.30;;
15958;SDS011;8078;47.822;9.402;2023-03-15T15:51:13;2.73;;;1.70;;
15958;SDS011;8078;47.822;9.402;2023-03-15T15:53:43;3.50;;;1.20;;
15958;SDS011;8078;47.822;9.402;2023-03-15T15:56:09;1.30;;;1.20;;
15958;SDS011;8078;47.822;9.402;2023-03-15T15:58:39;1.40;;;1.30;;
15958;SDS011;8078;47.822;9.402;2023-03-15T16:01:08;2.20;;;1.40;;
15958;SDS011;8078;47.822;9.402;2023-03-15T16:03:35;1.17;;;1.13;;
15958;SDS011;8078;47.822;9.402;2023-03-15T16:06:01;2.13;;;1.50;;
15958;SDS011;8078;47.822;9.402;2023-03-15T16:08:26;3.20;;;1.43;;
15958;SDS011;8078;47.822;9.402;2023-03-15T16:10:54;1.63;;;1.53;;
15958;SDS011;8078;47.822;9.402;2023-03-15T16:13:20;1.50;;;1.40;;
15958;SDS011;8078;47.822;9.402;2023-03-15T16:15:45;1.27;;;1.27;;
15958;SDS011;8078;47.822;9.402;2023-03-15T16:18:11;1.20;;;1.13;;
15958;SDS011;8078;47.822;9.402;2023-03-15T16:20:37;1.37;;;1.30;;
15958;SDS011;8078;47.822;9.402;2023-03-15T16:23:04;1.30;;;1.30;;
15958;SDS011;8078;47.822;9.402;2023-03-15T16:25:30;1.23;;;1.23;;